createdAt,value
2022-08-21T00:04:29.363Z,1022.2
2022-08-21T00:10:11.039Z,1022.1
2022-08-21T00:15:52.868Z,1022.2
2022-08-21T00:21:36.508Z,1022.3
2022-08-21T00:27:17.196Z,1022.3
2022-08-21T00:32:58.296Z,1022.4
2022-08-21T00:38:39.405Z,1022.5
2022-08-21T00:44:19.673Z,1022.6
2022-08-21T00:49:59.750Z,1022.5
2022-08-21T00:55:39.999Z,1022.6
2022-08-21T01:01:20.536Z,1022.6
2022-08-21T01:07:01.417Z,1022.6
2022-08-21T01:12:41.564Z,1022.6
2022-08-21T01:18:21.819Z,1022.6
2022-08-21T01:24:02.292Z,1022.6
2022-08-21T01:29:42.739Z,1022.7
2022-08-21T01:35:22.979Z,1022.7
2022-08-21T01:41:03.066Z,1022.8
2022-08-21T01:46:43.188Z,1022.8
2022-08-21T01:52:23.652Z,1023
2022-08-21T01:58:03.723Z,1022.9
2022-08-21T02:03:43.816Z,1023
2022-08-21T02:09:24.692Z,1022.9
2022-08-21T02:15:08.110Z,1022.9
2022-08-21T02:20:48.363Z,1023.1
2022-08-21T02:26:35.351Z,1023.2
2022-08-21T02:32:16.144Z,1023.3
2022-08-21T02:37:56.400Z,1023.2
2022-08-21T02:43:36.449Z,1023.3
2022-08-21T02:49:16.607Z,1023.3
2022-08-21T02:54:56.743Z,1023.4
2022-08-21T03:00:37.022Z,1023.3
2022-08-21T03:06:17.309Z,1023.2
2022-08-21T03:11:57.510Z,1023.1
2022-08-21T03:17:37.812Z,1023
2022-08-21T03:23:19.914Z,1023
2022-08-21T03:29:00.228Z,1023
2022-08-21T03:34:41.137Z,1023
2022-08-21T03:40:21.697Z,1023.1
2022-08-21T03:46:01.794Z,1023
2022-08-21T03:51:41.934Z,1023.2
2022-08-21T03:57:21.940Z,1023.3
2022-08-21T04:03:01.993Z,1023.5
2022-08-21T04:08:42.611Z,1023.4
2022-08-21T04:14:23.051Z,1023.5
2022-08-21T04:20:03.246Z,1023.6
2022-08-21T04:25:45.691Z,1023.6
2022-08-21T04:31:26.102Z,1023.7
2022-08-21T04:37:06.788Z,1023.8
2022-08-21T04:42:47.042Z,1023.8
2022-08-21T04:48:27.422Z,1023.7
2022-08-21T04:54:07.694Z,1023.7
2022-08-21T04:59:47.907Z,1023.5
2022-08-21T05:05:28.102Z,1023.5
2022-08-21T05:11:08.559Z,1023.4
2022-08-21T05:16:48.953Z,1023.4
2022-08-21T05:22:29.047Z,1023.3
2022-08-21T05:28:09.392Z,1023.2
2022-08-21T05:33:52.358Z,1023
2022-08-21T05:40:23.616Z,1022.8
2022-08-21T05:46:06.884Z,1022.2
2022-08-21T05:51:47.466Z,1021.3
2022-08-21T05:57:28.367Z,1019.2
2022-08-21T06:03:08.786Z,1018.2
2022-08-21T06:08:49.343Z,1017.8
2022-08-21T06:14:29.619Z,1017.6
2022-08-21T06:20:10.199Z,1017.5
2022-08-21T06:25:50.580Z,1017.4
2022-08-21T06:31:31.217Z,1017.5
2022-08-21T06:37:11.313Z,1017.5
2022-08-21T06:42:51.585Z,1017.6
2022-08-21T06:48:32.065Z,1017.6
2022-08-21T06:54:12.254Z,1017.6
2022-08-21T06:59:52.544Z,1017.6
2022-08-21T07:05:33.089Z,1017.5
2022-08-21T07:11:13.746Z,1017.5
2022-08-21T07:16:53.989Z,1017.6
2022-08-21T07:22:38.279Z,1017.6
2022-08-21T07:28:18.243Z,1017.5
2022-08-21T07:33:58.586Z,1017.5
2022-08-21T07:39:39.213Z,1017.5
2022-08-21T07:45:19.875Z,1017.5
2022-08-21T07:50:59.739Z,1017.5
2022-08-21T07:56:44.095Z,1017.4
2022-08-21T08:02:23.831Z,1017.4
2022-08-21T08:08:04.784Z,1017.3
2022-08-21T08:13:44.773Z,1017.1
2022-08-21T08:19:24.919Z,1017.2
2022-08-21T08:25:09.972Z,1017.2
2022-08-21T08:30:56.392Z,1017.3
2022-08-21T08:36:36.743Z,1017.1
2022-08-21T08:42:38.345Z,1017.1
2022-08-21T08:48:18.737Z,1017
2022-08-21T08:54:01.488Z,1017
2022-08-21T08:59:47.035Z,1017
2022-08-21T09:05:27.957Z,1017
2022-08-21T09:11:08.010Z,1016.9
2022-08-21T09:16:54.132Z,1017
2022-08-21T09:22:34.341Z,1016.9
2022-08-21T09:28:17.490Z,1017
2022-08-21T09:34:30.048Z,1016.9
2022-08-21T09:40:11.127Z,1016.9
2022-08-21T09:45:50.923Z,1017
2022-08-21T09:51:44.463Z,1016.9
2022-08-21T09:57:24.825Z,1016.8
2022-08-21T10:03:05.264Z,1016.7
2022-08-21T10:08:45.873Z,1016.7
2022-08-21T10:14:27.633Z,1016.7
2022-08-21T10:20:08.640Z,1016.7
2022-08-21T10:26:14.598Z,1016.7
2022-08-21T10:31:58.486Z,1016.6
2022-08-21T10:43:02.205Z,1016.7
2022-08-21T10:48:42.635Z,1016.6
2022-08-21T10:54:25.607Z,1016.6
2022-08-21T11:00:06.690Z,1016.5
2022-08-21T11:05:51.170Z,1016.6
2022-08-21T11:11:36.508Z,1016.5
2022-08-21T11:17:22.521Z,1016.5
2022-08-21T11:23:05.254Z,1016.5
2022-08-21T11:28:51.310Z,1016.5
2022-08-21T11:34:35.372Z,1016.6
2022-08-21T11:40:16.026Z,1016.5
2022-08-21T11:45:57.043Z,1016.4
2022-08-21T11:51:37.413Z,1016.4
2022-08-21T11:57:20.023Z,1016.4
2022-08-21T12:03:03.088Z,1016.4
2022-08-21T12:08:43.004Z,1016.4
2022-08-21T12:14:23.369Z,1016.4
2022-08-21T12:20:04.013Z,1016.4
2022-08-21T12:25:44.493Z,1016.4
2022-08-21T12:31:26.581Z,1016.3
2022-08-21T12:37:07.389Z,1016.3
2022-08-21T12:42:59.404Z,1016.3
2022-08-21T12:48:40.857Z,1016.3
2022-08-21T12:54:21.694Z,1016.3
2022-08-21T13:00:02.016Z,1016.2
2022-08-21T13:05:42.214Z,1016.1
2022-08-21T13:11:34.414Z,1016.1
2022-08-21T13:17:26.463Z,1016.2
2022-08-21T13:23:12.168Z,1016.1
2022-08-21T13:28:53.531Z,1016.1
2022-08-21T13:34:33.563Z,1016.2
2022-08-21T13:40:16.520Z,1016.1
2022-08-21T13:45:57.171Z,1016
2022-08-21T13:51:38.697Z,1015.9
2022-08-21T13:57:18.649Z,1015.9
2022-08-21T14:03:01.816Z,1015.9
2022-08-21T14:08:44.217Z,1015.9
2022-08-21T14:14:24.407Z,1016
2022-08-21T14:20:04.714Z,1015.9
2022-08-21T14:25:45.824Z,1015.9
2022-08-21T14:31:30.889Z,1015.9
2022-08-21T14:37:11.346Z,1015.9
2022-08-21T14:42:54.166Z,1015.8
2022-08-21T14:48:37.930Z,1015.8
2022-08-21T14:54:23.234Z,1015.9
2022-08-21T15:00:13.475Z,1015.8
2022-08-21T15:05:53.740Z,1015.8
2022-08-21T15:11:43.483Z,1015.7
2022-08-21T15:17:29.188Z,1015.7
2022-08-21T15:23:15.428Z,1015.7
2022-08-21T15:28:56.588Z,1015.6
2022-08-21T15:34:37.117Z,1015.6
2022-08-21T15:45:19.524Z,1015.6
2022-08-21T15:51:01.590Z,1015.7
2022-08-21T15:56:42.093Z,1015.6
2022-08-21T16:02:22.011Z,1015.7
2022-08-21T16:08:03.832Z,1015.7
2022-08-21T16:13:47.769Z,1015.7
2022-08-21T16:19:28.333Z,1015.7
2022-08-21T16:25:09.566Z,1015.8
2022-08-21T16:30:49.634Z,1015.7
2022-08-21T16:36:30.212Z,1015.7
2022-08-21T16:42:12.061Z,1015.7
2022-08-21T16:47:53.774Z,1015.6
2022-08-21T16:53:34.083Z,1015.7
2022-08-21T16:59:17.753Z,1015.7
2022-08-21T17:04:58.181Z,1015.7
2022-08-21T17:10:38.047Z,1015.7
2022-08-21T17:16:18.584Z,1015.6
2022-08-21T17:21:58.699Z,1015.6
2022-08-21T17:27:42.264Z,1015.5
2022-08-21T17:33:22.905Z,1015.6
2022-08-21T17:39:03.180Z,1015.6
2022-08-21T17:44:43.651Z,1015.7
2022-08-21T17:50:26.679Z,1015.6
2022-08-21T17:56:06.885Z,1015.7
2022-08-21T18:01:49.025Z,1015.6
2022-08-21T18:07:33.501Z,1015.7
2022-08-21T18:13:13.998Z,1015.7
2022-08-21T18:18:54.294Z,1015.7
2022-08-21T18:24:41.005Z,1015.7
2022-08-21T18:30:24.010Z,1015.7
2022-08-21T18:36:05.035Z,1015.8
2022-08-21T18:46:46.052Z,1015.8
2022-08-21T18:52:32.003Z,1015.9
2022-08-21T18:58:14.679Z,1016
2022-08-21T19:03:56.704Z,1016.2
2022-08-21T19:14:46.448Z,1016.3
2022-08-21T19:20:27.522Z,1016.4
2022-08-21T19:26:08.056Z,1016.5
2022-08-21T19:31:48.507Z,1016.6
2022-08-21T19:37:30.275Z,1016.7
2022-08-21T19:43:23.598Z,1016.7
2022-08-21T19:49:05.941Z,1016.7
2022-08-21T19:54:47.373Z,1016.8
2022-08-21T20:00:36.673Z,1016.8
2022-08-21T20:06:24.824Z,1016.9
2022-08-21T20:12:10.849Z,1017
2022-08-21T20:17:51.038Z,1017
2022-08-21T20:23:34.473Z,1017
2022-08-21T20:29:39.090Z,1017.2
2022-08-21T20:35:26.138Z,1017.2
2022-08-21T22:47:40.246Z,1016.4
2022-08-21T22:53:20.449Z,1016.7
2022-08-21T22:59:01.303Z,1017.2
2022-08-21T23:04:41.827Z,1017.4
2022-08-21T23:10:27.978Z,1017.4
2022-08-21T23:16:18.780Z,1017.9
2022-08-21T23:22:00.821Z,1018
2022-08-21T23:27:44.766Z,1018.1
2022-08-21T23:33:38.795Z,1018.2
2022-08-21T23:39:20.790Z,1018.5
